.
WxDataArchive / Data Records for 2014-04-17
2014-04-16 April 2014 2014-04-18

Data Records for Thursday, 17 April 2014

Time	Temp	Chill	HIndex	Humid	Dewpt	 Wind 	HiWind	WindDir	Rain 	Barom
-----	----	-----	------	-----	-----	------	------	-------	-----	-----
00:00	37.6	37.6	37.6	65	26.9	2	5	90	0.00	30.295 
00:05	37.6	37.6	37.6	65	26.9	3	7	90	0.00	30.295 
00:10	37.6	37.6	37.6	65	26.9	3	6	112	0.00	30.295 
00:15	37.5	37.5	37.5	65	26.8	2	5	112	0.00	30.293 
00:20	37.3	37.3	37.3	67	27.4	2	5	90	0.00	30.293 
00:25	36.9	36.9	36.9	70	28.0	3	6	90	0.00	30.293 
00:30	36.5	36.5	36.5	72	28.3	3	5	90	0.00	30.296 
00:35	35.9	35.9	35.9	74	28.4	3	7	90	0.00	30.296 
00:40	35.6	35.6	35.6	76	28.8	3	7	90	0.00	30.296 
00:45	35.3	35.3	35.3	77	28.8	3	7	90	0.00	30.293 
00:50	35.0	35.0	35.0	78	28.8	3	7	68	0.00	30.293 
00:55	34.9	31.4	34.9	78	28.7	4	10	90	0.00	30.293 
01:00	34.7	34.7	34.7	78	28.6	3	6	90	0.00	30.290 
01:05	34.6	34.6	34.6	79	28.8	3	8	90	0.00	30.290 
01:10	34.4	34.4	34.4	79	28.6	1	3	112	0.00	30.290 
01:15	34.3	34.3	34.3	79	28.5	1	6	112	0.00	30.295 
01:20	34.1	34.1	34.1	79	28.3	2	5	90	0.00	30.295 
01:25	34.0	34.0	34.0	80	28.5	2	5	90	0.00	30.295 
01:30	34.0	34.0	34.0	80	28.5	2	4	90	0.00	30.287 
01:35	34.0	34.0	34.0	80	28.5	2	6	90	0.00	30.287 
01:40	33.8	33.8	33.8	80	28.3	2	6	68	0.00	30.287 
01:45	33.8	33.8	33.8	80	28.3	2	4	90	0.00	30.285 
01:50	33.7	33.7	33.7	80	28.2	3	6	90	0.00	30.285 
01:55	33.5	33.5	33.5	80	28.0	3	6	90	0.00	30.285 
02:00	33.4	33.4	33.4	81	28.2	2	6	90	0.00	30.280 
02:05	33.2	33.2	33.2	81	28.0	1	4	90	0.00	30.280 
02:10	33.1	33.1	33.1	81	27.9	2	5	90	0.00	30.280 
02:15	33.1	33.1	33.1	81	27.9	2	4	90	0.00	30.283 
02:20	32.9	32.9	32.9	81	27.7	2	6	90	0.00	30.283 
02:25	32.8	32.8	32.8	82	27.9	1	3	90	0.00	30.283 
02:30	32.5	32.5	32.5	82	27.6	3	4	90	0.00	30.275 
02:35	32.4	32.4	32.4	82	27.5	3	5	90	0.00	30.275 
02:40	32.4	32.4	32.4	83	27.8	3	6	68	0.00	30.275 
02:45	32.4	32.4	32.4	83	27.8	1	3	68	0.00	30.273 
02:50	32.2	32.2	32.2	83	27.6	1	4	68	0.00	30.273 
02:55	32.1	32.1	32.1	83	27.5	2	5	68	0.00	30.273 
03:00	32.1	32.1	32.1	83	27.5	2	5	68	0.00	30.274 
03:05	32.1	32.1	32.1	83	27.5	1	2	68	0.00	30.274 
03:10	32.1	32.1	32.1	83	27.5	1	4	68	0.00	30.274 
03:15	31.9	31.9	31.9	83	27.3	1	2	68	0.00	30.278 
03:20	31.9	31.9	31.9	83	27.3	1	3	68	0.00	30.278 
03:25	31.9	31.9	31.9	83	27.3	0	2	68	0.00	30.278 
03:30	31.8	31.8	31.8	83	27.2	0	2	68	0.00	30.278 
03:35	31.8	31.8	31.8	83	27.2	0	2	68	0.00	30.278 
03:40	31.6	31.6	31.6	83	27.0	0	2	68	0.00	30.278 
03:45	31.5	31.5	31.5	83	26.9	0	1	68	0.00	30.278 
03:50	31.3	31.3	31.3	83	26.7	0	2	68	0.00	30.278 
03:55	31.3	31.3	31.3	83	26.7	0	1	68	0.00	30.278 
04:00	31.2	31.2	31.2	84	26.9	0	1	68	0.00	30.280 
04:05	31.0	31.0	31.0	84	26.7	0	2	68	0.00	30.280 
04:10	31.0	31.0	31.0	84	26.7	0	2	68	0.00	30.280 
04:15	30.9	30.9	30.9	84	26.6	0	3	68	0.00	30.279 
04:20	30.9	30.9	30.9	84	26.6	1	4	68	0.00	30.279 
04:25	30.9	30.9	30.9	84	26.6	0	2	68	0.00	30.279 
04:30	30.7	30.7	30.7	84	26.4	0	2	68	0.00	30.279 
04:35	30.7	30.7	30.7	84	26.4	1	3	68	0.00	30.279 
04:40	30.7	30.7	30.7	84	26.4	1	3	68	0.00	30.279 
04:45	30.7	30.7	30.7	84	26.4	1	4	68	0.00	30.274 
04:50	30.6	30.6	30.6	84	26.4	1	3	68	0.00	30.274 
04:55	30.6	30.6	30.6	84	26.4	1	4	68	0.00	30.274 
05:00	30.4	30.4	30.4	84	26.2	1	4	68	0.00	30.271 
05:05	30.4	30.4	30.4	84	26.2	1	3	68	0.00	30.271 
05:10	30.4	30.4	30.4	84	26.2	1	4	68	0.00	30.271 
05:15	30.4	30.4	30.4	84	26.2	1	3	68	0.00	30.274 
05:20	30.4	30.4	30.4	84	26.2	0	2	68	0.00	30.274 
05:25	30.3	30.3	30.3	84	26.1	1	2	68	0.00	30.274 
05:30	30.3	30.3	30.3	84	26.1	1	2	68	0.00	30.268 
05:35	30.3	30.3	30.3	84	26.1	0	2	68	0.00	30.268 
05:40	30.3	30.3	30.3	84	26.1	1	2	68	0.00	30.268 
05:45	30.3	30.3	30.3	83	25.8	1	3	68	0.00	30.265 
05:50	30.3	30.3	30.3	83	25.8	1	4	68	0.00	30.265 
05:55	30.3	30.3	30.3	83	25.8	0	2	68	0.00	30.265 
06:00	30.3	30.3	30.3	83	25.8	1	3	68	0.00	30.272 
06:05	30.3	30.3	30.3	83	25.8	1	3	68	0.00	30.272 
06:10	30.3	30.3	30.3	82	25.5	0	2	68	0.00	30.272 
06:15	30.3	30.3	30.3	82	25.5	0	3	68	0.00	30.279 
06:20	30.3	30.3	30.3	82	25.5	0	2	68	0.00	30.279 
06:25	30.3	30.3	30.3	82	25.5	1	3	68	0.00	30.279 
06:30	30.3	30.3	30.3	82	25.5	1	2	68	0.00	30.279 
06:35	30.3	30.3	30.3	82	25.5	0	2	68	0.00	30.279 
06:40	30.1	30.1	30.1	82	25.3	0	2	68	0.00	30.279 
06:45	30.1	30.1	30.1	82	25.3	1	4	68	0.00	30.281 
06:50	30.3	30.3	30.3	81	25.2	2	4	68	0.00	30.281 
06:55	30.3	30.3	30.3	81	25.2	1	3	68	0.00	30.281 
07:00	30.3	30.3	30.3	81	25.2	1	2	68	0.00	30.282 
07:05	30.3	30.3	30.3	81	25.2	1	3	68	0.00	30.282 
07:10	30.3	30.3	30.3	81	25.2	0	2	68	0.00	30.282 
07:15	30.3	30.3	30.3	81	25.2	0	2	68	0.00	30.286 
07:20	30.3	30.3	30.3	81	25.2	0	1	68	0.00	30.286 
07:25	30.3	30.3	30.3	81	25.2	0	2	68	0.00	30.286 
07:30	30.4	30.4	30.4	81	25.3	1	3	68	0.00	30.286 
07:35	30.7	30.7	30.7	80	25.3	1	2	68	0.00	30.286 
07:40	31.2	31.2	31.2	80	25.8	1	2	22	0.00	30.286 
07:45	31.6	31.6	31.6	78	25.5	1	4	68	0.00	30.284 
07:50	32.1	32.1	32.1	77	25.7	1	2	68	0.00	30.284 
07:55	32.4	32.4	32.4	77	26.0	0	2	68	0.00	30.284 
08:00	32.4	32.4	32.4	77	26.0	1	2	68	0.00	30.286 
08:05	32.5	32.5	32.5	77	26.1	1	3	68	0.00	30.286 
08:10	32.7	32.7	32.7	77	26.3	1	2	68	0.00	30.286 
08:15	33.4	33.4	33.4	76	26.7	1	3	68	0.00	30.292 
08:20	34.1	34.1	34.1	74	26.7	2	4	68	0.00	30.292 
08:25	34.9	34.9	34.9	71	26.5	1	3	90	0.00	30.292 
08:30	35.3	35.3	35.3	69	26.2	2	5	90	0.00	30.289 
08:35	35.6	35.6	35.6	69	26.4	2	5	90	0.00	30.289 
08:40	36.0	36.0	36.0	69	26.8	1	4	90	0.00	30.289 
08:45	36.8	36.8	36.8	66	26.5	1	4	68	0.00	30.290 
08:50	37.5	37.5	37.5	64	26.4	1	3	112	0.00	30.290 
08:55	38.0	38.0	38.0	64	26.9	1	3	112	0.00	30.290 
09:00	38.3	38.3	38.3	64	27.2	1	6	112	0.00	30.288 
09:05	38.8	38.8	38.8	63	27.3	0	3	135	0.00	30.288 
09:10	39.3	39.3	39.3	64	28.2	1	3	90	0.00	30.288 
09:15	39.8	39.8	39.8	61	27.5	1	3	90	0.00	30.290 
09:20	40.2	40.2	40.2	61	27.8	1	3	90	0.00	30.290 
09:25	40.6	40.6	40.6	60	27.8	1	3	90	0.00	30.290 
09:30	41.3	41.3	41.3	60	28.5	0	2	135	0.00	30.291 
09:35	41.9	41.9	41.9	58	28.2	1	4	112	0.00	30.291 
09:40	42.5	42.5	42.5	58	28.8	1	5	112	0.00	30.291 
09:45	43.1	43.1	43.1	58	29.3	1	4	112	0.00	30.290 
09:50	43.8	43.8	43.8	58	30.0	0	2	112	0.00	30.290 
09:55	44.8	44.8	44.8	56	30.1	0	2	112	0.00	30.290 
10:00	45.7	45.7	45.7	53	29.6	1	3	112	0.00	30.285 
10:05	46.8	46.8	46.8	52	30.1	0	3	112	0.00	30.285 
10:10	47.9	47.9	47.9	50	30.2	0	2	112	0.00	30.285 
10:15	48.6	48.6	48.6	47	29.3	1	4	112	0.00	30.284 
10:20	49.4	49.4	49.4	46	29.5	1	4	112	0.00	30.284 
10:25	50.1	50.1	50.1	44	29.0	2	5	135	0.00	30.284 
10:30	50.5	50.5	50.5	44	29.4	1	4	112	0.00	30.282 
10:35	51.1	51.1	51.1	44	30.0	2	5	90	0.00	30.282 
10:40	51.4	51.4	51.4	45	30.8	1	4	90	0.00	30.282 
10:45	51.7	51.7	51.7	44	30.5	1	4	90	0.00	30.281 
10:50	52.2	52.2	52.2	44	31.0	0	2	90	0.00	30.281 
10:55	52.9	52.9	52.9	44	31.6	1	4	90	0.00	30.281 
11:00	53.3	53.3	53.3	43	31.4	1	3	45	0.00	30.276 
11:05	53.6	53.6	53.6	41	30.5	1	5	338	0.00	30.276 
11:10	54.4	54.4	54.4	39	30.0	1	6	90	0.00	30.276 
11:15	54.7	54.7	54.7	41	31.5	1	3	248	0.00	30.275 
11:20	55.0	55.0	55.0	43	32.9	1	3	248	0.00	30.275 
11:25	55.9	55.9	55.9	43	33.7	1	2	248	0.00	30.275 
11:30	56.5	56.5	56.5	41	33.1	1	3	270	0.00	30.268 
11:35	57.2	57.2	57.2	39	32.5	1	6	292	0.00	30.268 
11:40	57.6	57.6	57.6	35	30.2	1	4	22	0.00	30.268 
11:45	57.8	57.8	57.8	38	32.4	2	5	112	0.00	30.263 
11:50	58.1	58.1	58.1	39	33.3	1	3	225	0.00	30.263 
11:55	58.7	58.7	58.7	35	31.1	1	4	112	0.00	30.263 
12:00	58.9	58.9	58.9	33	29.9	2	5	248	0.00	30.264 
12:05	58.9	58.9	58.9	35	31.3	1	4	248	0.00	30.264 
12:10	59.6	59.6	59.6	37	33.3	1	5	112	0.00	30.264 
12:15	60.2	60.2	60.2	38	34.5	1	4	248	0.00	30.265 
12:20	60.7	60.7	60.7	35	32.9	1	6	248	0.00	30.265 
12:25	60.9	60.9	60.9	31	30.1	2	6	248	0.00	30.265 
12:30	60.7	60.7	60.7	31	29.9	1	5	248	0.00	30.259 
12:35	60.7	60.7	60.7	31	29.9	2	11	248	0.00	30.259 
12:40	60.9	60.9	60.9	31	30.1	2	4	248	0.00	30.259 
12:45	61.0	61.0	61.0	28	27.7	2	5	248	0.00	30.254 
12:50	61.3	61.3	61.3	32	31.2	2	5	270	0.00	30.254 
12:55	62.0	62.0	62.0	30	30.2	2	6	248	0.00	30.254 
13:00	62.3	62.3	62.3	27	27.9	2	5	248	0.00	30.250 
13:05	62.3	62.3	62.3	30	30.5	2	5	270	0.00	30.250 
13:10	62.9	62.9	62.9	31	31.8	1	5	270	0.00	30.250 
13:15	63.2	63.2	63.2	27	28.7	3	12	90	0.00	30.246 
13:20	63.1	63.1	63.1	27	28.6	2	5	248	0.00	30.246 
13:25	63.2	63.2	63.2	30	31.3	1	5	248	0.00	30.246 
13:30	63.4	63.4	63.4	27	28.8	2	7	248	0.00	30.244 
13:35	63.5	63.5	63.5	26	28.0	2	7	248	0.00	30.244 
13:40	63.7	63.7	63.7	26	28.2	2	4	270	0.00	30.244 
13:45	63.9	63.9	63.9	25	27.4	2	7	248	0.00	30.240 
13:50	63.9	63.9	63.9	27	29.3	2	5	0	0.00	30.240 
13:55	64.2	64.2	64.2	27	29.5	1	5	248	0.00	30.240 
14:00	64.2	64.2	64.2	25	27.6	3	7	248	0.00	30.234 
14:05	64.3	64.3	64.3	26	28.7	2	6	248	0.00	30.234 
14:10	64.3	64.3	64.3	26	28.7	3	10	248	0.00	30.234 
14:15	64.3	64.3	64.3	28	30.5	3	9	248	0.00	30.240 
14:20	64.5	64.5	64.5	27	29.8	2	7	248	0.00	30.240 
14:25	64.7	64.7	64.7	28	30.8	3	10	248	0.00	30.240 
14:30	64.5	64.5	64.5	26	28.9	3	10	248	0.00	30.235 
14:35	64.8	64.8	64.8	27	30.0	2	6	248	0.00	30.235 
14:40	65.0	65.0	65.0	26	29.3	2	9	270	0.00	30.235 
14:45	64.8	64.8	64.8	26	29.1	2	9	248	0.00	30.234 
14:50	64.8	64.8	64.8	25	28.2	2	4	270	0.00	30.234 
14:55	65.2	65.2	65.2	29	32.1	2	10	292	0.00	30.234 
15:00	65.8	65.8	65.8	25	29.0	2	5	248	0.00	30.232 
15:05	66.0	66.0	66.0	27	31.1	2	6	248	0.00	30.232 
15:10	65.8	65.8	65.8	27	30.9	2	13	270	0.00	30.232 
15:15	65.8	65.8	65.8	27	30.9	2	5	248	0.00	30.230 
15:20	66.3	66.3	66.3	27	31.3	2	6	225	0.00	30.230 
15:25	66.4	66.4	66.4	24	28.5	2	6	248	0.00	30.230 
15:30	66.4	66.4	66.4	25	29.5	3	7	248	0.00	30.229 
15:35	66.4	66.4	66.4	25	29.5	3	9	248	0.00	30.229 
15:40	66.4	66.4	66.4	24	28.5	2	5	248	0.00	30.229 
15:45	66.3	66.3	66.3	25	29.4	2	6	248	0.00	30.224 
15:50	66.1	66.1	66.1	23	27.2	3	10	248	0.00	30.224 
15:55	66.0	66.0	66.0	25	29.2	2	6	270	0.00	30.224 
16:00	66.6	66.6	66.6	26	30.6	2	5	248	0.00	30.223 
16:05	66.9	66.9	66.9	25	29.9	2	6	248	0.00	30.223 
16:10	67.3	67.3	67.3	25	30.3	2	5	248	0.00	30.223 
16:15	67.1	67.1	67.1	25	30.1	2	6	248	0.00	30.219 
16:20	67.1	67.1	67.1	25	30.1	1	4	270	0.00	30.219 
16:25	66.8	66.8	66.8	25	29.8	2	6	270	0.00	30.219 
16:30	66.6	66.6	66.6	25	29.7	2	6	248	0.00	30.216 
16:35	66.6	66.6	66.6	25	29.7	2	5	248	0.00	30.216 
16:40	66.8	66.8	66.8	23	27.8	2	5	292	0.00	30.216 
16:45	66.9	66.9	66.9	25	29.9	1	4	248	0.00	30.216 
16:50	66.8	66.8	66.8	25	29.8	2	6	248	0.00	30.216 
16:55	66.8	66.8	66.8	26	30.8	2	6	248	0.00	30.216 
17:00	66.8	66.8	66.8	25	29.8	2	4	248	0.00	30.218 
17:05	66.9	66.9	66.9	28	32.7	1	4	270	0.00	30.218 
17:10	67.3	67.3	67.3	26	31.2	2	5	248	0.00	30.218 
17:15	67.3	67.3	67.3	25	30.3	1	4	248	0.00	30.217 
17:20	66.9	66.9	66.9	26	30.9	3	7	248	0.00	30.217 
17:25	66.9	66.9	66.9	27	31.8	1	2	225	0.00	30.217 
17:30	67.1	67.1	67.1	26	31.1	1	7	248	0.00	30.218 
17:35	67.1	67.1	67.1	24	29.1	2	5	248	0.00	30.218 
17:40	67.1	67.1	67.1	26	31.1	2	6	248	0.00	30.218 
17:45	67.3	67.3	67.3	25	30.3	1	4	248	0.00	30.220 
17:50	66.8	66.8	66.8	26	30.8	1	4	248	0.00	30.220 
17:55	66.6	66.6	66.6	26	30.6	1	3	225	0.00	30.220 
18:00	66.4	66.4	66.4	25	29.5	1	2	225	0.00	30.219 
18:05	66.3	66.3	66.3	26	30.4	1	3	225	0.00	30.219 
18:10	66.0	66.0	66.0	25	29.2	1	5	225	0.00	30.219 
18:15	65.6	65.6	65.6	26	29.8	1	6	248	0.00	30.227 
18:20	65.3	65.3	65.3	27	30.5	1	4	248	0.00	30.227 
18:25	65.5	65.5	65.5	26	29.7	1	3	248	0.00	30.227 
18:30	65.5	65.5	65.5	26	29.7	2	5	248	0.00	30.225 
18:35	65.3	65.3	65.3	26	29.5	2	4	248	0.00	30.225 
18:40	65.2	65.2	65.2	25	28.5	2	5	248	0.00	30.225 
18:45	65.2	65.2	65.2	27	30.4	1	3	248	0.00	30.221 
18:50	64.8	64.8	64.8	27	30.0	1	5	248	0.00	30.221 
18:55	64.3	64.3	64.3	26	28.7	2	4	248	0.00	30.221 
19:00	64.0	64.0	64.0	26	28.4	2	5	248	0.00	30.221 
19:05	63.9	63.9	63.9	27	29.3	1	6	248	0.00	30.221 
19:10	63.9	63.9	63.9	28	30.2	1	6	248	0.00	30.221 
19:15	63.9	63.9	63.9	27	29.3	0	3	248	0.00	30.218 
19:20	63.7	63.7	63.7	27	29.1	1	3	270	0.00	30.218 
19:25	63.7	63.7	63.7	27	29.1	1	4	248	0.00	30.218 
19:30	63.7	63.7	63.7	28	30.0	1	3	248	0.00	30.222 
19:35	63.5	63.5	63.5	28	29.8	1	5	248	0.00	30.222 
19:40	63.4	63.4	63.4	28	29.7	1	3	248	0.00	30.222 
19:45	63.1	63.1	63.1	28	29.5	1	2	248	0.00	30.230 
19:50	62.9	62.9	62.9	27	28.4	0	1	248	0.00	30.230 
19:55	62.6	62.6	62.6	29	29.9	0	1	248	0.00	30.230 
20:00	62.3	62.3	62.3	29	29.6	0	1	248	0.00	30.232 
20:05	62.0	62.0	62.0	29	29.4	0	1	248	0.00	30.232 
20:10	61.8	61.8	61.8	30	30.0	0	3	248	0.00	30.232 
20:15	61.6	61.6	61.6	31	30.7	0	1	248	0.00	30.229 
20:20	61.3	61.3	61.3	30	29.6	1	4	248	0.00	30.229 
20:25	61.2	61.2	61.2	31	30.3	0	1	248	0.00	30.229 
20:30	61.0	61.0	61.0	31	30.2	0	2	248	0.00	30.231 
20:35	60.7	60.7	60.7	31	29.9	0	1	248	0.00	30.231 
20:40	60.5	60.5	60.5	31	29.7	0	1	248	0.00	30.231 
20:45	60.2	60.2	60.2	33	31.0	0	1	248	0.00	30.234 
20:50	59.9	59.9	59.9	35	32.2	0	1	248	0.00	30.234 
20:55	59.5	59.5	59.5	34	31.1	0	1	248	0.00	30.234 
21:00	59.2	59.2	59.2	35	31.6	0	1	248	0.00	30.244 
21:05	58.9	58.9	58.9	36	32.0	0	0	---	0.00	30.244 
21:10	58.4	58.4	58.4	36	31.6	0	0	---	0.00	30.244 
21:15	58.1	58.1	58.1	37	32.0	0	0	---	0.00	30.240 
21:20	57.8	57.8	57.8	38	32.4	0	0	---	0.00	30.240 
21:25	57.5	57.5	57.5	39	32.7	0	0	---	0.00	30.240 
21:30	57.2	57.2	57.2	39	32.5	0	0	---	0.00	30.249 
21:35	56.9	56.9	56.9	39	32.2	0	0	---	0.00	30.249 
21:40	56.7	56.7	56.7	39	32.0	0	0	---	0.00	30.249 
21:45	56.5	56.5	56.5	40	32.5	0	0	---	0.00	30.254 
21:50	56.3	56.3	56.3	40	32.3	0	0	---	0.00	30.254 
21:55	56.2	56.2	56.2	41	32.8	0	0	---	0.00	30.254 
22:00	55.9	55.9	55.9	42	33.1	0	0	---	0.00	30.249 
22:05	55.7	55.7	55.7	43	33.6	0	0	---	0.00	30.249 
22:10	55.6	55.6	55.6	44	34.0	0	0	---	0.00	30.249 
22:15	55.3	55.3	55.3	44	33.8	0	0	---	0.00	30.241 
22:20	55.1	55.1	55.1	44	33.6	0	0	---	0.00	30.241 
22:25	55.0	55.0	55.0	45	34.1	0	0	---	0.00	30.241 
22:30	55.0	55.0	55.0	46	34.6	0	0	---	0.00	30.238 
22:35	54.8	54.8	54.8	46	34.4	0	0	---	0.00	30.238 
22:40	54.5	54.5	54.5	46	34.1	0	0	---	0.00	30.238 
22:45	54.2	54.2	54.2	47	34.4	0	0	---	0.00	30.238 
22:50	53.9	53.9	53.9	47	34.1	0	0	---	0.00	30.238 
22:55	53.6	53.6	53.6	48	34.4	0	0	---	0.00	30.238 
23:00	53.5	53.5	53.5	49	34.8	0	0	---	0.00	30.237 
23:05	53.2	53.2	53.2	50	35.0	0	0	---	0.00	30.237 
23:10	52.9	52.9	52.9	50	34.8	0	0	---	0.00	30.237 
23:15	52.8	52.8	52.8	51	35.2	0	0	---	0.00	30.233 
23:20	52.5	52.5	52.5	51	34.9	0	0	---	0.00	30.233 
23:25	52.3	52.3	52.3	51	34.7	0	0	---	0.00	30.233 
23:30	52.0	52.0	52.0	52	34.9	0	0	---	0.00	30.235 
23:35	51.9	51.9	51.9	53	35.3	0	0	---	0.00	30.235 
23:40	51.7	51.7	51.7	53	35.1	0	0	---	0.00	30.235 
23:45	51.7	51.7	51.7	54	35.6	0	0	---	0.00	30.233 
23:50	51.7	51.7	51.7	54	35.6	0	0	---	0.00	30.233 
23:55	51.6	51.6	51.6	54	35.5	0	0	---	0.00	30.233 

CoCoRaHS
IN-AL-39
A2 Web Hosting
Creative Commons License
GoDaddy
search engine by freefind advanced

loaded 2018-11-19 10:55:52 • last modified 2010-11-18 10:43:29
Privacy PolicyDisclaimer
• wx.awcolley.com is powered by PmWiki v.2002016 •
• all content (unless otherwise noted) © 2018 A W Colley